KMYJ

Mexico Memorial Airport

Mexico, Missouri, USA
METAR KMYJ 210055Z AUTO 08003KT 10SM CLR 03/02 A2993 RMK AO2
Observed Flight Rules
Jan-21 @ 00:55 UTC (4 hours ago) Visual Flight Rules
Wind Visibility Clouds
80° at 3 knots 10 miles
  • Clear skies
Temperatures Readings
Current 3°C / 37°F
Dewpoint 2°C / 36°F
Humidity 93%
Altimeter 29.93" Hg
Pressure 1014 hPa
Elevation 251
METAR KMYJ 210055Z AUTO 08003KT 10SM CLR 03/02 A2993 RMK AO2
Observed Flight Rules
Jan-21 @ 00:55 UTC
(4 hours ago)
VFR
Wind Visibility
80° at 3 knots 10 miles
Clouds
  • Clear skies
Temperature Dewpoint
3°C / 37°F 2°C / 36°F
Humidity Altimeter Pressure
93% 29.93" Hg 1014 hPa